Flight Track Log - Related Links

Times and Time Zones

All times are in EDT time to prevent confusion due to time zone crossing. See the SWA168 flight status page for this flight to view local times or setup timezone preferences in your user account.


Time Position Orientation Groundspeed Altitude Reporting Facility
EDT Latitude Longitude Course Direction KTS MPH feet Rate Location/Type
Thu 07:30:08 PM 33.9500 -118.4667 208° Southwest 182 209 1,700  Level Southern California TRACON
Thu 07:31:23 PM 33.8769 -118.5125 208° Southwest 264 304 4,600 2,365 Climbing Los Angeles Center
Thu 07:32:25 PM 33.8097 -118.5158 182° South 276 318 7,100 2,710 Climbing Los Angeles Center
Thu 07:33:27 PM 33.7136 -118.5117 178° South 295 339 10,200 2,613 Climbing Los Angeles Center
Thu 07:34:29 PM 33.6694 -118.4322 124° Southeast 295 339 12,500 1,839 Climbing Los Angeles Center
Thu 07:35:31 PM 33.6450 -118.3314 106° East 319 367 14,000 1,694 Climbing Los Angeles Center
Thu 07:36:33 PM 33.6433 -118.2186 91° East 344 396 16,000 1,742 Climbing Los Angeles Center
Thu 07:37:35 PM 33.6442 -118.0742 90° East 365 420 17,600 1,597 Climbing Los Angeles Center
Thu 07:38:37 PM 33.6422 -117.9439 91° East 389 448 19,300 1,694 Climbing Los Angeles Center
Thu 07:39:39 PM 33.6292 -117.8153 97° East 390 449 21,100 1,500 Climbing Los Angeles Center
Thu 07:40:41 PM 33.6172 -117.6819 96° East 401 461 22,400 1,306 Climbing Los Angeles Center
Thu 07:41:43 PM 33.6053 -117.5444 96° East 414 476 23,800 1,500 Climbing Los Angeles Center
Thu 07:42:45 PM 33.5892 -117.3781 97° East 420 483 25,500 1,355 Climbing Los Angeles Center
Thu 07:43:47 PM 33.5761 -117.2364 96° East 428 493 26,600 1,016 Climbing Los Angeles Center
Thu 07:44:49 PM 33.5625 -117.0969 97° East 433 498 27,600 1,065 Climbing Los Angeles Center
Thu 07:45:51 PM 33.5492 -116.9497 96° East 441 507 28,800 1,161 Climbing Los Angeles Center
Thu 07:46:53 PM 33.5347 -116.8025 97° East 445 512 30,000 1,258 Climbing Los Angeles Center
Thu 07:47:55 PM 33.5200 -116.6581 97° East 438 504 31,400 1,103 Climbing Los Angeles Center
Thu 07:49:09 PM 33.5028 -116.4850 97° East 435 501 32,500 971 Climbing Los Angeles Center
Thu 07:50:11 PM 33.4869 -116.3139 96° East 432 497 33,600 871 Climbing Los Angeles Center
Thu 07:51:13 PM 33.4706 -116.1692 98° East 432 497 34,300 677 Climbing Los Angeles Center
Thu 07:52:15 PM 33.4561 -116.0233 97° East 437 503 35,000 339 Climbing Los Angeles Center
Thu 07:53:17 PM 33.4397 -115.8764 98° East 443 510 35,000 -48 Level Los Angeles Center
Thu 07:54:19 PM 33.4239 -115.7300 97° East 442 509 34,900  Descending Los Angeles Center
Thu 07:55:21 PM 33.4072 -115.5858 98° East 439 505 35,000  Climbing Los Angeles Center
Thu 07:56:23 PM 33.3881 -115.4139 98° East 435 501 34,900  Descending Los Angeles Center
Thu 07:57:25 PM 33.3731 -115.2711 97° East 432 497 35,000 49 Climbing Los Angeles Center
Thu 07:58:26 PM 33.3564 -115.1289 98° East 433 498 35,000  Level Los Angeles Center
Thu 07:59:28 PM 33.3394 -114.9864 98° East 433 498 35,000  Level Los Angeles Center
Thu 08:00:43 PM 33.3208 -114.8172 97° East 430 495 35,000  Level Los Angeles Center
Thu 08:01:45 PM 33.3042 -114.6764 98° East 428 493 35,000  Level Los Angeles Center
Thu 08:02:47 PM 33.2842 -114.5078 98° East 428 493 35,000  Level Los Angeles Center
Thu 08:03:49 PM 33.2672 -114.3667 98° East 429 494 35,000  Level Los Angeles Center
Thu 08:04:43 PM 33.2589 -114.2619 95° East 427 491 35,000 -52 Level Albuquerque Center
Thu 08:05:45 PM 33.2369 -114.0939 99° East 427 491 34,900 -48 Descending Albuquerque Center
Thu 08:06:47 PM 33.2194 -113.9528 98° East 429 494 34,900 49 Level Albuquerque Center
Thu 08:07:48 PM 33.2031 -113.8125 98° East 427 491 35,000 49 Climbing Albuquerque Center
Thu 08:08:50 PM 33.1853 -113.6717 99° East 428 493 35,000  Level Albuquerque Center
Thu 08:09:51 PM 33.1683 -113.5303 98° East 430 495 35,000 -49 Level Albuquerque Center
Thu 08:10:53 PM 33.1494 -113.3903 99° East 428 493 34,900 -49 Descending Albuquerque Center
Thu 08:11:54 PM 33.1319 -113.2500 98° East 428 493 34,900 49 Level Albuquerque Center
Thu 08:12:56 PM 33.1142 -113.1086 98° East 429 494 35,000 48 Climbing Albuquerque Center
Thu 08:13:58 PM 33.0961 -112.9681 99° East 428 493 35,000  Level Albuquerque Center
Thu 08:15:00 PM 33.0744 -112.7981 99° East 430 495 35,000  Level Albuquerque Center
Thu 08:16:01 PM 33.0556 -112.6578 99° East 428 493 35,000  Level Albuquerque Center
Thu 08:17:03 PM 33.0372 -112.5186 99° East 425 489 35,000  Level Albuquerque Center
Thu 08:18:05 PM 33.0181 -112.3789 99° East 426 490 35,000  Level Albuquerque Center
Thu 08:19:06 PM 32.9969 -112.2308 100° East 424 488 35,000  Level Albuquerque Center
Thu 08:20:08 PM 32.9775 -112.0831 99° East 423 487 35,000  Level Albuquerque Center
Thu 08:21:10 PM 32.9589 -111.9458 99° East 422 486 35,000  Level Albuquerque Center
Thu 08:22:12 PM 32.9378 -111.7981 100° East 422 486 35,000  Level Albuquerque Center
Thu 08:23:13 PM 32.9192 -111.6597 99° East 424 488 35,000  Level Albuquerque Center
Thu 08:24:15 PM 32.8989 -111.5125 99° East 422 486 35,000  Level Albuquerque Center
Thu 08:25:17 PM 32.8789 -111.3767 100° East 419 482 35,000  Level Albuquerque Center
Thu 08:26:19 PM 32.8611 -111.2558 100° East 419 482 35,000  Level Albuquerque Center
Thu 08:27:21 PM 32.8436 -111.1225 99° East 413 475 35,000  Level Albuquerque Center
Thu 08:28:22 PM 32.8200 -110.9606 100° East 416 479 35,000  Level Albuquerque Center
Thu 08:29:24 PM 32.7997 -110.8253 100° East 417 480 35,000  Level Albuquerque Center
Thu 08:30:26 PM 32.7786 -110.6897 100° East 418 481 35,000  Level Albuquerque Center
Thu 08:31:28 PM 32.7586 -110.5531 100° East 420 483 35,000  Level Albuquerque Center
Thu 08:32:29 PM 32.7372 -110.4167 101° East 421 484 35,000  Level Albuquerque Center
Thu 08:33:31 PM 32.7167 -110.2806 100° East 420 483 35,000  Level Albuquerque Center
Thu 08:34:33 PM 32.6894 -110.1181 101° East 421 484 35,000  Level Albuquerque Center
Thu 08:36:00 PM 32.6592 -109.9258 101° East  Level FlightAware Approximate
Thu 08:36:36 PM 32.6239 -109.8564 101° East 416 479 35,000  Level Albuquerque Center
Thu 08:37:38 PM 32.5922 -109.7242 106° East 417 480 35,000  Level Albuquerque Center
Thu 08:38:40 PM 32.5658 -109.5931 103° East 413 475 35,000  Level Albuquerque Center
Thu 08:39:41 PM 32.5417 -109.4611 102° East 412 474 35,000  Level Albuquerque Center
Thu 08:40:43 PM 32.5131 -109.3039 102° East 411 473 35,000  Level Albuquerque Center
Thu 08:41:45 PM 32.4917 -109.1719 101° East 411 473 35,000  Level Albuquerque Center
Thu 08:42:46 PM 32.4672 -109.0394 102° East 413 475 35,000 -439 Level Albuquerque Center
Thu 08:43:48 PM 32.4481 -108.9036 99° East 418 481 34,100 -871 Descending Albuquerque Center
Thu 08:44:50 PM 32.4253 -108.7706 101° East 418 481 33,200 -537 Descending Albuquerque Center
Thu 08:45:51 PM 32.4019 -108.6375 102° East 418 481 33,000 -98 Descending Albuquerque Center
Thu 08:46:53 PM 32.3767 -108.4836 101° East 404 465 33,000  Level Albuquerque Center
Thu 08:47:55 PM 32.3572 -108.3731 102° East 399 459 33,000  Level Albuquerque Center
Thu 08:48:56 PM 32.3294 -108.2133 102° East 411 473 33,000  Level Albuquerque Center
Thu 08:49:58 PM 32.3064 -108.0775 101° East 420 483 33,000 -780 Level Albuquerque Center
Thu 08:50:59 PM 32.2822 -107.9383 102° East 431 496 31,400 -1,902 Descending Albuquerque Center
Thu 08:52:01 PM 32.2575 -107.7950 101° East 444 511 29,100 -2,129 Descending Albuquerque Center
Thu 08:53:03 PM 32.2336 -107.6589 102° East 432 497 27,000 -2,049 Descending Albuquerque Center
Thu 08:54:04 PM 32.2097 -107.5297 102° East 413 475 24,900 -2,098 Descending Albuquerque Center
Thu 08:55:06 PM 32.1836 -107.3903 102° East 392 451 22,700 -2,098 Descending Albuquerque Center
Thu 08:56:07 PM 32.1636 -107.2625 100° East 381 438 20,600 -1,902 Descending Albuquerque Center
Thu 08:57:09 PM 32.1428 -107.1508 102° East 360 414 18,800 -1,647 Descending Albuquerque Center
Thu 08:57:49 PM 32.1289 -107.0758 102° East 345 397 17,800 -1,756 Descending Albuquerque Center
Thu 08:59:12 PM 32.1039 -106.9369 102° East 337 388 15,200 -1,895 Descending Albuquerque Center
Thu 09:00:02 PM 32.0856 -106.8408 103° East 319 367 13,600 -1,784 Descending Albuquerque Center
Thu 09:01:03 PM 32.0675 -106.7400 102° East 309 356 11,900 -1,574 Descending Albuquerque Center
Thu 09:02:04 PM 32.0469 -106.6475 105° East 296 341 10,400 -1,289 Descending Albuquerque Center
Thu 09:03:04 PM 32.0331 -106.5583 100° East 273 314 9,300 -1,091 Descending Albuquerque Center
Thu 09:04:05 PM 32.0192 -106.4692 100° East 251 289 8,200 -1,140 Descending Albuquerque Center
Thu 09:05:05 PM 32.0047 -106.3900 102° East 240 276 7,000 -595 Descending Albuquerque Center
Thu 09:06:06 PM 31.9667 -106.3319 128° Southeast 235 270 7,000 -49 Level Albuquerque Center
Thu 09:07:07 PM 31.9114 -106.2981 153° Southeast 219 252 6,900 -645 Descending Albuquerque Center
Thu 09:08:07 PM 31.8675 -106.3042 187° South 162 186 5,700 -1,190 Descending Albuquerque Center
Thu 09:09:08 PM 31.8411 -106.3456 233° Southwest 157 181 4,500 -713 Descending Albuquerque Center
Thu 09:10:30 PM 31.8042 -106.3900 226° Southwest 153 176 4,000 -366 Descending Albuquerque Center
Thu 09:12:00 PM 31.8072 -106.3764 90° East  Level Estimated

Login

Don't have an account? Register now (free) for customized features, flight alerts, and more!